Time;durP1;ratioP1;P1;durP2;ratioP2;P2;SDS_P1;SDS_P2;PMS_P1;PMS_P2;Temp;Humidity;BMP_temperature;BMP_pressure;BME280_temperature;BME280_humidity;BME280_pressure;Samples;Min_cycle;Max_cycle;Signal;HPM_P1;HPM_P2
2023/04/19 00:02:18;;;;;;;15.77;11.77;;;;;;;8.85;100.00;162878.03;5071359;28;20050;-61
2023/04/19 00:04:44;;;;;;;12.18;10.48;;;;;;;8.77;100.00;162857.78;5070606;28;20032;-61
2023/04/19 00:07:10;;;;;;;14.10;11.43;;;;;;;8.73;100.00;162847.03;5071892;28;20097;-61
2023/04/19 00:09:35;;;;;;;15.63;12.10;;;;;;;8.70;100.00;162838.91;5070716;28;20388;-60
2023/04/19 00:12:01;;;;;;;15.95;11.13;;;;;;;8.67;100.00;162832.19;5070866;28;20059;-60
2023/04/19 00:14:27;;;;;;;23.55;11.05;;;;;;;8.65;100.00;162825.44;5067677;28;20522;-61
2023/04/19 00:16:52;;;;;;;13.35;10.82;;;;;;;8.60;100.00;162811.97;5057651;28;20032;-60
2023/04/19 00:19:17;;;;;;;17.17;14.38;;;;;;;8.55;100.00;162801.16;5070036;28;20036;-61
2023/04/19 00:21:43;;;;;;;21.85;13.13;;;;;;;8.46;100.00;162775.50;5070595;28;20060;-61
2023/04/19 00:24:08;;;;;;;15.77;10.88;;;;;;;8.51;100.00;162790.41;5069978;28;20028;-61
2023/04/19 00:26:33;;;;;;;13.85;11.82;;;;;;;8.51;100.00;162790.41;5071768;28;20027;-60
2023/04/19 00:28:59;;;;;;;14.00;12.25;;;;;;;8.49;100.00;162783.69;5069820;28;20017;-61
2023/04/19 00:31:24;;;;;;;18.30;10.38;;;;;;;8.44;100.00;162771.50;5070847;28;20081;-61
2023/04/19 00:33:50;;;;;;;15.32;11.77;;;;;;;8.40;100.00;162760.69;5070231;28;20044;-61
2023/04/19 00:36:15;;;;;;;11.65;8.90;;;;;;;8.37;100.00;162752.63;5070957;28;20028;-62
2023/04/19 00:38:40;;;;;;;12.38;10.85;;;;;;;8.36;100.00;162751.25;5070406;28;20016;-61
2023/04/19 00:41:06;;;;;;;18.27;12.20;;;;;;;8.35;100.00;162747.22;5063287;28;20087;-62
2023/04/19 00:43:31;;;;;;;15.40;11.32;;;;;;;8.35;100.00;162747.22;5051300;28;20032;-62
2023/04/19 00:45:56;;;;;;;12.68;11.15;;;;;;;8.36;100.00;162749.91;5049404;28;20052;-62
2023/04/19 00:48:22;;;;;;;18.95;11.43;;;;;;;8.39;100.00;162759.34;5082300;28;20076;-62
2023/04/19 00:50:48;;;;;;;15.43;9.43;;;;;;;8.39;100.00;162759.34;5066262;28;20522;-62
2023/04/19 00:53:13;;;;;;;16.05;11.13;;;;;;;8.37;100.00;162752.63;5050218;28;20036;-62
2023/04/19 00:55:39;;;;;;;16.58;13.18;;;;;;;8.34;100.00;162744.50;5049488;28;20070;-62
2023/04/19 00:58:07;;;;;;;11.23;9.25;;;;;;;8.29;100.00;162732.38;5068277;28;20111;-62
2023/04/19 01:00:32;;;;;;;14.30;9.93;;;;;;;8.23;100.00;162717.53;5068400;28;20563;-62
2023/04/19 01:02:57;;;;;;;14.20;8.45;;;;;;;8.21;100.00;162712.19;5070829;28;20024;-62
2023/04/19 01:05:23;;;;;;;11.07;9.98;;;;;;;8.20;100.00;162709.47;5060487;28;20048;-62
2023/04/19 01:07:48;;;;;;;11.70;10.05;;;;;;;8.22;100.00;162714.88;5065488;28;20032;-62
2023/04/19 01:10:14;;;;;;;14.23;11.50;;;;;;;8.25;100.00;162722.94;5069263;28;20510;-62
2023/04/19 01:12:39;;;;;;;13.82;10.75;;;;;;;8.30;100.00;162733.75;5070191;28;20032;-62
2023/04/19 01:15:05;;;;;;;10.85;9.10;;;;;;;8.33;100.00;162741.81;5068870;28;20040;-62
2023/04/19 01:17:31;;;;;;;11.63;10.52;;;;;;;8.36;100.00;162749.91;5070869;28;20024;-62
2023/04/19 01:20:07;;;;;;;11.10;9.43;;;;;;;8.37;100.00;162752.63;5069285;28;20086;-62
2023/04/19 01:22:33;;;;;;;11.98;8.68;;;;;;;8.32;100.00;162739.09;5069614;28;20053;-62
2023/04/19 01:24:58;;;;;;;11.23;8.05;;;;;;;8.31;100.00;162736.41;5069138;28;20041;-62
2023/04/19 01:27:23;;;;;;;12.50;8.23;;;;;;;8.28;100.00;162728.34;5081122;28;20024;-63
2023/04/19 01:29:49;;;;;;;13.25;9.48;;;;;;;8.31;100.00;162736.41;5079575;28;20046;-62
2023/04/19 01:32:16;;;;;;;10.15;9.02;;;;;;;8.39;100.00;162757.97;5061941;28;20157;-62
2023/04/19 01:34:41;;;;;;;11.88;10.18;;;;;;;8.45;100.00;162772.81;5061852;28;20033;-61
2023/04/19 01:37:07;;;;;;;14.32;10.63;;;;;;;8.45;100.00;162772.81;5083103;28;20031;-61
2023/04/19 01:39:32;;;;;;;11.02;9.73;;;;;;;8.52;100.00;162793.09;5082317;28;20047;-62
2023/04/19 01:41:57;;;;;;;12.85;9.65;;;;;;;8.55;100.00;162799.84;5058713;28;20025;-64
2023/04/19 01:44:23;;;;;;;11.68;9.07;;;;;;;8.60;100.00;162811.97;5048878;28;20037;-63
2023/04/19 01:46:48;;;;;;;12.88;8.63;;;;;;;8.61;100.00;162814.63;5060305;28;20025;-61
2023/04/19 01:49:13;;;;;;;9.98;8.55;;;;;;;8.59;100.00;162809.28;5069211;28;20044;-61
2023/04/19 01:51:39;;;;;;;12.52;9.27;;;;;;;8.54;100.00;162798.47;5069425;28;20032;-61
2023/04/19 01:54:04;;;;;;;9.25;7.95;;;;;;;8.53;100.00;162795.75;5068958;28;20035;-60
2023/04/19 01:56:29;;;;;;;9.85;8.90;;;;;;;8.50;100.00;162787.72;5069782;28;20028;-61
2023/04/19 01:58:55;;;;;;;12.80;9.25;;;;;;;8.43;100.00;162768.78;5068355;28;20028;-60
2023/04/19 02:01:21;;;;;;;14.65;9.18;;;;;;;8.49;100.00;162785.00;5065680;28;20025;-60
2023/04/19 02:03:46;;;;;;;11.65;9.00;;;;;;;8.48;100.00;162782.28;5070503;28;20471;-60
2023/04/19 02:06:12;;;;;;;9.00;8.07;;;;;;;8.45;100.00;162772.81;5070992;28;20462;-61
2023/04/19 02:08:41;;;;;;;8.77;7.40;;;;;;;8.46;100.00;162776.84;5073660;28;20468;-60
2023/04/19 02:11:13;;;;;;;10.95;8.77;;;;;;;8.47;100.00;162778.28;5070713;28;20048;-61
2023/04/19 02:13:38;;;;;;;15.88;8.63;;;;;;;8.43;100.00;162768.78;5073990;28;20020;-62
2023/04/19 02:16:04;;;;;;;8.35;7.22;;;;;;;8.46;100.00;162775.50;5074587;28;20055;-62
2023/04/19 02:18:30;;;;;;;10.32;8.98;;;;;;;8.45;100.00;162774.13;5094233;28;20023;-62
2023/04/19 02:20:56;;;;;;;8.88;7.97;;;;;;;8.42;100.00;162766.09;5052941;28;20053;-62
2023/04/19 02:23:22;;;;;;;10.20;9.13;;;;;;;8.43;100.00;162768.78;5063440;28;20029;-62
2023/04/19 02:25:47;;;;;;;10.27;9.27;;;;;;;8.38;100.00;162755.25;5072665;28;20542;-62
2023/04/19 02:28:12;;;;;;;10.80;8.00;;;;;;;8.33;100.00;162741.81;5073388;28;20531;-62
2023/04/19 02:30:38;;;;;;;15.82;8.20;;;;;;;8.25;100.00;162722.94;5071796;28;20051;-62
2023/04/19 02:33:03;;;;;;;11.07;9.13;;;;;;;8.21;100.00;162712.19;5073734;28;20495;-62
2023/04/19 02:35:28;;;;;;;10.20;8.35;;;;;;;8.15;100.00;162694.63;5072079;28;20048;-62
2023/04/19 02:37:54;;;;;;;12.02;8.60;;;;;;;8.08;100.00;162677.09;5090345;28;20040;-61
2023/04/19 02:40:21;;;;;;;8.30;7.53;;;;;;;8.05;100.00;162669.03;5078307;28;20037;-63
2023/04/19 02:42:47;;;;;;;9.95;7.40;;;;;;;8.02;100.00;162660.94;5073653;28;20065;-63
2023/04/19 02:45:12;;;;;;;13.25;8.90;;;;;;;8.00;100.00;162655.59;5072164;28;20040;-63
2023/04/19 02:47:37;;;;;;;8.95;7.57;;;;;;;7.96;100.00;162646.16;5073617;28;20031;-63
2023/04/19 02:50:03;;;;;;;10.73;8.25;;;;;;;7.93;100.00;162639.38;5070609;28;20527;-63
2023/04/19 02:52:28;;;;;;;8.95;8.05;;;;;;;7.96;100.00;162644.78;5072758;28;20497;-63
2023/04/19 02:54:54;;;;;;;12.45;8.45;;;;;;;7.97;100.00;162647.47;5071516;28;20037;-63
2023/04/19 02:57:19;;;;;;;9.40;8.35;;;;;;;7.81;100.00;162607.06;5072990;28;20025;-62
2023/04/19 02:59:45;;;;;;;10.13;8.18;;;;;;;7.90;100.00;162629.94;5070981;28;20032;-61
2023/04/19 03:02:10;;;;;;;8.55;7.65;;;;;;;7.83;100.00;162612.44;5072988;28;20410;-62
2023/04/19 03:04:35;;;;;;;9.98;7.82;;;;;;;7.77;100.00;162596.28;5071315;28;20043;-62
2023/04/19 03:07:01;;;;;;;13.30;8.50;;;;;;;7.67;100.00;162569.31;5073366;28;20027;-62
2023/04/19 03:09:26;;;;;;;10.68;8.27;;;;;;;7.53;100.00;162534.31;5070745;28;20040;-62
2023/04/19 03:11:52;;;;;;;8.98;8.10;;;;;;;7.55;100.00;162539.72;5072823;28;20032;-62
2023/04/19 03:14:17;;;;;;;8.27;7.50;;;;;;;7.47;100.00;162519.47;5071793;28;20045;-60
2023/04/19 03:16:42;;;;;;;9.57;7.78;;;;;;;7.44;100.00;162510.06;5072109;28;20395;-60
2023/04/19 03:19:08;;;;;;;8.52;7.63;;;;;;;7.40;100.00;162499.28;5069071;28;20236;-60
2023/04/19 03:21:33;;;;;;;7.65;6.88;;;;;;;7.35;100.00;162485.78;5066977;28;20044;-60
2023/04/19 03:23:58;;;;;;;12.57;9.30;;;;;;;7.37;100.00;162491.19;5071054;28;20024;-61
2023/04/19 03:26:24;;;;;;;7.85;7.15;;;;;;;7.40;100.00;162500.63;5092854;28;20383;-60
2023/04/19 03:28:49;;;;;;;11.90;7.93;;;;;;;7.46;100.00;162515.44;5076145;28;20028;-60
2023/04/19 03:31:15;;;;;;;16.00;10.05;;;;;;;7.48;100.00;162520.84;5070150;28;20040;-60
2023/04/19 03:33:40;;;;;;;12.60;8.57;;;;;;;7.54;100.00;162535.63;5073078;28;20017;-61
2023/04/19 03:36:06;;;;;;;16.35;9.27;;;;;;;7.58;100.00;162547.75;5070839;28;20036;-60
2023/04/19 03:38:31;;;;;;;7.82;7.03;;;;;;;7.66;100.00;162566.63;5092746;28;20107;-60
2023/04/19 03:40:56;;;;;;;8.07;5.85;;;;;;;7.71;100.00;162580.09;5074470;28;20043;-60
2023/04/19 03:43:25;;;;;;;9.68;7.93;;;;;;;7.74;100.00;162588.19;5072166;28;20028;-60
2023/04/19 03:45:50;;;;;;;7.03;6.32;;;;;;;7.76;100.00;162593.59;5069345;28;20032;-60
2023/04/19 03:48:16;;;;;;;10.02;6.97;;;;;;;7.80;100.00;162604.34;5065613;28;20041;-60
2023/04/19 03:50:41;;;;;;;19.15;8.52;;;;;;;7.84;100.00;162615.16;5072929;28;20044;-60
2023/04/19 03:53:06;;;;;;;10.32;6.65;;;;;;;7.89;100.00;162628.63;5054820;28;20033;-60
2023/04/19 03:55:32;;;;;;;7.97;6.57;;;;;;;7.91;100.00;162634.00;5050689;28;20071;-60
2023/04/19 03:57:57;;;;;;;21.83;7.78;;;;;;;7.93;100.00;162639.38;5051600;28;20024;-60
2023/04/19 04:00:22;;;;;;;8.00;6.80;;;;;;;7.94;100.00;162642.06;5050658;28;20045;-61
2023/04/19 04:02:48;;;;;;;17.98;6.65;;;;;;;8.00;100.00;162656.91;5052282;28;20025;-57
2023/04/19 04:05:14;;;;;;;6.10;5.50;;;;;;;8.02;100.00;162660.94;5050109;28;20044;-57
2023/04/19 04:07:39;;;;;;;14.48;6.70;;;;;;;7.99;100.00;162652.88;5052436;28;20496;-57
2023/04/19 04:10:05;;;;;;;7.03;6.00;;;;;;;7.99;100.00;162652.88;5050524;28;20106;-57
2023/04/19 04:12:30;;;;;;;7.20;6.50;;;;;;;7.99;100.00;162652.88;5051540;28;20491;-57
2023/04/19 04:14:55;;;;;;;12.15;6.55;;;;;;;7.99;100.00;162652.88;5050211;28;20095;-57
2023/04/19 04:17:23;;;;;;;6.35;5.60;;;;;;;8.02;100.00;162660.94;5052126;28;20100;-57
2023/04/19 04:19:48;;;;;;;8.65;7.22;;;;;;;8.01;100.00;162658.22;5049858;28;20405;-57
2023/04/19 04:22:13;;;;;;;13.50;7.35;;;;;;;8.04;100.00;162666.34;5051409;28;20053;-57
2023/04/19 04:24:43;;;;;;;6.28;5.68;;;;;;;8.01;100.00;162658.22;5050266;28;20454;-57
2023/04/19 04:27:09;;;;;;;6.88;6.15;;;;;;;8.02;100.00;162660.94;5051356;28;20049;-57
2023/04/19 04:29:37;;;;;;;8.77;7.43;;;;;;;8.02;100.00;162660.94;5049202;28;20048;-57
2023/04/19 04:32:07;;;;;;;7.93;6.80;;;;;;;7.99;100.00;162652.88;5051605;28;20029;-57
2023/04/19 04:34:33;;;;;;;8.52;6.20;;;;;;;7.98;100.00;162650.19;5051389;28;20025;-57
2023/04/19 04:36:58;;;;;;;7.97;6.20;;;;;;;7.94;100.00;162642.06;5050038;28;20102;-57
2023/04/19 04:39:24;;;;;;;7.60;6.78;;;;;;;7.98;100.00;162651.50;5051748;28;20029;-57
2023/04/19 04:41:50;;;;;;;9.25;6.60;;;;;;;7.96;100.00;162644.78;5050781;28;20040;-57
2023/04/19 04:44:16;;;;;;;5.82;5.32;;;;;;;7.90;100.00;162629.94;5071461;28;20029;-57
2023/04/19 04:46:41;;;;;;;8.45;5.82;;;;;;;7.92;100.00;162635.34;5069925;28;20043;-57
2023/04/19 04:49:06;;;;;;;10.02;5.53;;;;;;;7.93;100.00;162639.38;5070639;28;20029;-57
2023/04/19 04:51:32;;;;;;;7.45;4.97;;;;;;;7.94;100.00;162640.75;5068501;28;20040;-57
2023/04/19 04:53:58;;;;;;;8.65;6.13;;;;;;;7.91;100.00;162632.63;5071094;28;20495;-57
2023/04/19 04:56:24;;;;;;;9.70;6.18;;;;;;;7.91;100.00;162634.00;5069143;28;20051;-57
2023/04/19 04:58:50;;;;;;;6.05;5.47;;;;;;;7.91;100.00;162634.00;5071304;28;20443;-57
2023/04/19 05:01:18;;;;;;;11.27;5.68;;;;;;;7.92;100.00;162636.72;5069539;28;20048;-57
2023/04/19 05:03:43;;;;;;;8.75;6.00;;;;;;;7.90;100.00;162631.31;5070985;28;20016;-57
2023/04/19 05:06:09;;;;;;;6.68;5.68;;;;;;;7.88;100.00;162625.91;5069479;28;20097;-57
2023/04/19 05:08:34;;;;;;;6.03;5.40;;;;;;;7.87;100.00;162623.22;5071010;28;20365;-57
2023/04/19 05:10:59;;;;;;;7.20;6.20;;;;;;;7.90;100.00;162631.31;5068995;28;20032;-57
2023/04/19 05:13:25;;;;;;;5.68;5.18;;;;;;;7.89;100.00;162628.63;5071106;28;20040;-57
2023/04/19 05:15:50;;;;;;;10.30;6.57;;;;;;;7.88;100.00;162625.91;5069442;28;20039;-57
2023/04/19 05:18:15;;;;;;;9.95;6.25;;;;;;;7.86;100.00;162620.50;5070308;28;20031;-57
2023/04/19 05:20:41;;;;;;;7.75;6.43;;;;;;;7.80;100.00;162604.34;5069165;28;20058;-57
2023/04/19 05:23:07;;;;;;;6.43;5.72;;;;;;;7.73;100.00;162585.47;5070642;28;20024;-57
2023/04/19 05:25:32;;;;;;;8.55;4.38;;;;;;;7.67;100.00;162569.31;5068914;28;20033;-57
2023/04/19 05:27:57;;;;;;;5.60;4.38;;;;;;;7.65;100.00;162563.94;5070613;28;20021;-57
2023/04/19 05:30:23;;;;;;;6.45;4.18;;;;;;;7.62;100.00;162557.19;5069375;28;20094;-57
2023/04/19 05:32:48;;;;;;;4.95;3.83;;;;;;;7.61;100.00;162554.50;5070424;28;20025;-57
2023/04/19 05:35:14;;;;;;;8.93;4.93;;;;;;;7.58;100.00;162546.44;5069010;28;20094;-57
2023/04/19 05:37:40;;;;;;;5.40;4.90;;;;;;;7.46;100.00;162515.44;5070707;28;20024;-57
2023/04/19 05:40:08;;;;;;;7.90;4.80;;;;;;;7.30;100.00;162473.66;5068044;28;20435;-58
2023/04/19 05:42:34;;;;;;;6.38;4.40;;;;;;;7.26;100.00;162464.22;5070979;28;20029;-57
2023/04/19 05:44:59;;;;;;;4.82;3.92;;;;;;;7.20;100.00;162448.06;5068858;28;20036;-57
2023/04/19 05:47:25;;;;;;;6.28;5.15;;;;;;;7.17;100.00;162440.03;5070480;28;20031;-57
2023/04/19 05:49:50;;;;;;;5.32;4.07;;;;;;;7.10;100.00;162421.19;5069129;28;20036;-57
2023/04/19 05:52:15;;;;;;;5.25;4.70;;;;;;;6.98;100.00;162391.53;5070381;28;20476;-57
2023/04/19 05:54:41;;;;;;;4.65;4.25;;;;;;;6.97;100.00;162387.50;5068590;28;20052;-57
2023/04/19 05:57:06;;;;;;;5.50;4.95;;;;;;;6.92;100.00;162374.03;5070546;28;20020;-58
2023/04/19 05:59:32;;;;;;;5.95;4.85;;;;;;;6.90;100.00;162369.97;5069001;28;20097;-58
2023/04/19 06:01:59;;;;;;;6.68;5.50;;;;;;;6.89;100.00;162367.28;5070056;28;20024;-58
2023/04/19 06:04:25;;;;;;;10.77;5.50;;;;;;;6.89;100.00;162367.28;5069181;28;20037;-58
2023/04/19 06:06:50;;;;;;;5.25;4.20;;;;;;;6.91;100.00;162372.66;5070384;28;20024;-58
2023/04/19 06:09:17;;;;;;;6.50;4.53;;;;;;;6.90;100.00;162368.66;5068190;28;20414;-58
2023/04/19 06:11:42;;;;;;;12.25;6.60;;;;;;;6.91;100.00;162372.66;5070808;28;20051;-58
2023/04/19 06:14:09;;;;;;;5.50;4.93;;;;;;;6.90;100.00;162369.97;5068783;28;20025;-58
2023/04/19 06:16:34;;;;;;;12.55;6.72;;;;;;;6.90;100.00;162368.66;5070374;28;20020;-58
2023/04/19 06:19:00;;;;;;;7.85;4.72;;;;;;;6.90;100.00;162368.66;5068621;28;20352;-58
2023/04/19 06:21:25;;;;;;;7.00;4.05;;;;;;;6.94;100.00;162379.41;5070093;28;20059;-58
2023/04/19 06:23:51;;;;;;;29.85;6.53;;;;;;;7.00;100.00;162395.53;5070356;28;20023;-58
2023/04/19 06:26:16;;;;;;;5.13;3.50;;;;;;;7.09;100.00;162418.47;5068330;28;20051;-58
2023/04/19 06:28:41;;;;;;;5.80;4.18;;;;;;;7.15;100.00;162435.94;5070104;28;20024;-58
2023/04/19 06:31:07;;;;;;;5.60;4.68;;;;;;;7.17;100.00;162438.66;5068723;28;20040;-58
2023/04/19 06:33:32;;;;;;;4.30;4.00;;;;;;;7.22;100.00;162453.47;5070127;28;20476;-57
2023/04/19 06:35:57;;;;;;;8.13;4.57;;;;;;;7.25;100.00;162460.22;5068496;28;20037;-58
2023/04/19 06:38:23;;;;;;;5.32;4.13;;;;;;;7.34;100.00;162483.09;5070198;28;20039;-58
2023/04/19 06:40:48;;;;;;;6.20;4.30;;;;;;;7.37;100.00;162491.19;5068363;28;20048;-58
2023/04/19 06:43:14;;;;;;;5.38;4.65;;;;;;;7.42;100.00;162504.66;5069673;28;20024;-58
2023/04/19 06:45:39;;;;;;;12.18;4.28;;;;;;;7.33;100.00;162480.44;5068774;28;20044;-57
2023/04/19 06:48:04;;;;;;;5.72;3.97;;;;;;;7.58;100.00;162547.75;5069288;28;20028;-58
2023/04/19 06:50:30;;;;;;;6.45;4.75;;;;;;;7.68;100.00;162573.34;5068525;28;20041;-58
2023/04/19 06:52:55;;;;;;;5.25;4.63;;;;;;;7.75;100.00;162590.88;5072003;28;20119;-58
2023/04/19 06:55:21;;;;;;;6.25;4.35;;;;;;;7.83;100.00;162612.44;5071769;28;20388;-58
2023/04/19 06:57:46;;;;;;;8.45;5.22;;;;;;;8.01;100.00;162658.22;5073649;28;20056;-58
2023/04/19 07:00:12;;;;;;;5.53;3.92;;;;;;;8.05;100.00;162669.03;5070173;28;20043;-58
2023/04/19 07:02:38;;;;;;;8.93;5.20;;;;;;;8.28;100.00;162729.66;5069568;28;20085;-58
2023/04/19 07:05:03;;;;;;;3.92;3.20;;;;;;;8.54;100.00;162798.47;5070535;28;20041;-58
2023/04/19 07:07:29;;;;;;;4.55;2.80;;;;;;;8.97;100.00;162909.06;5072981;28;20383;-58
2023/04/19 07:09:54;;;;;;;4.97;3.03;;;;;;;9.57;100.00;163066.81;5071094;28;20055;-58
2023/04/19 07:12:20;;;;;;;4.63;3.15;;;;;;;10.39;100.00;163281.38;5073475;28;20020;-58
2023/04/19 07:14:45;;;;;;;8.20;2.88;;;;;;;11.49;100.00;163567.63;5071731;28;20036;-58
2023/04/19 07:17:12;;;;;;;2.78;2.40;;;;;;;12.33;100.00;163787.88;5072274;28;20032;-59
2023/04/19 07:19:37;;;;;;;4.13;3.25;;;;;;;12.53;100.00;163841.91;5071476;28;20040;-58
2023/04/19 07:22:05;;;;;;;3.50;2.42;;;;;;;12.63;100.00;163866.25;5072496;28;20407;-58
2023/04/19 07:24:30;;;;;;;4.50;2.97;;;;;;;12.24;100.00;163764.91;5071246;28;20032;-58
2023/04/19 07:26:56;;;;;;;3.95;3.67;;;;;;;12.56;100.00;163847.34;5072198;28;20544;-58
2023/04/19 07:29:21;;;;;;;2.78;2.20;;;;;;;13.13;100.00;163997.38;5071488;28;20048;-58
2023/04/19 07:31:47;;;;;;;4.63;1.88;;;;;;;13.88;100.00;164194.84;5072308;28;20031;-58
2023/04/19 07:34:12;;;;;;;7.97;3.13;;;;;;;13.84;100.00;164184.00;5071065;28;20499;-58
2023/04/19 07:36:37;;;;;;;2.85;2.53;;;;;;;14.12;100.00;164257.03;5072672;28;20040;-58
2023/04/19 07:39:03;;;;;;;5.10;3.10;;;;;;;13.62;100.00;164127.22;5070896;28;20368;-58
2023/04/19 07:41:30;;;;;;;3.65;2.85;;;;;;;14.32;100.00;164308.47;5072217;28;20546;-58
2023/04/19 07:43:55;;;;;;;4.72;2.38;;;;;;;13.95;100.00;164213.78;5071108;28;20486;-58
2023/04/19 07:46:21;;;;;;;3.70;2.67;;;;;;;14.22;100.00;164284.13;5069658;28;20013;-59
2023/04/19 07:48:46;;;;;;;5.60;2.10;;;;;;;14.33;100.00;164311.19;5069638;28;20028;-58
2023/04/19 07:51:15;;;;;;;3.47;2.08;;;;;;;13.75;100.00;164159.66;5070418;28;20094;-58
2023/04/19 07:53:40;;;;;;;;;;;;;;;13.02;100.00;163970.31;5072521;28;20024;-58
2023/04/19 07:56:07;;;;;;;3.05;2.85;;;;;;;12.90;100.00;163937.91;5070498;28;20428;-58
2023/04/19 07:58:33;;;;;;;4.20;3.63;;;;;;;12.73;100.00;163893.31;5072111;28;20031;-58
2023/04/19 08:00:58;;;;;;;3.72;2.95;;;;;;;13.04;100.00;163973.03;5069484;28;20111;-58
2023/04/19 08:03:24;;;;;;;2.60;1.90;;;;;;;13.28;100.00;164036.56;5071577;28;20036;-58
2023/04/19 08:05:49;;;;;;;8.10;2.67;;;;;;;13.54;100.00;164105.56;5070531;28;20048;-58
2023/04/19 08:08:15;;;;;;;7.00;2.92;;;;;;;13.53;100.00;164102.88;5071176;28;20021;-58
2023/04/19 08:10:40;;;;;;;3.05;2.40;;;;;;;13.92;100.00;164205.66;5070480;28;20043;-58
2023/04/19 08:13:05;;;;;;;4.85;2.03;;;;;;;13.66;100.00;164135.34;5071538;28;20024;-59
2023/04/19 08:15:34;;;;;;;5.40;2.38;;;;;;;13.84;100.00;164184.00;5069996;28;20098;-59
2023/04/19 08:17:59;;;;;;;10.38;2.80;;;;;;;14.20;100.00;164277.34;5071668;28;20493;-58
2023/04/19 08:20:25;;;;;;;5.47;1.85;;;;;;;13.60;100.00;164121.78;5070085;28;20059;-58
2023/04/19 08:22:51;;;;;;;2.55;2.35;;;;;;;13.22;100.00;164021.69;5071471;28;20020;-58
2023/04/19 08:25:16;;;;;;;2.45;2.25;;;;;;;13.51;100.00;164097.50;5070139;28;20519;-58
2023/04/19 08:27:42;;;;;;;2.25;2.08;;;;;;;13.87;100.00;164192.16;5071712;28;20078;-58
2023/04/19 08:30:08;;;;;;;5.00;2.15;;;;;;;13.50;100.00;164094.78;5069474;28;20491;-58
2023/04/19 08:32:33;;;;;;;7.53;1.65;;;;;;;13.46;100.00;164083.94;5071654;28;20032;-58
2023/04/19 08:34:59;;;;;;;1.88;1.75;;;;;;;13.31;100.00;164044.69;5070081;28;20475;-58
2023/04/19 08:37:25;;;;;;;3.65;2.10;;;;;;;13.09;100.00;163986.53;5071158;28;20035;-59
2023/04/19 08:39:51;;;;;;;4.38;2.47;;;;;;;13.26;100.00;164032.53;5069784;28;20430;-58
2023/04/19 08:42:17;;;;;;;3.30;2.30;;;;;;;13.48;100.00;164089.34;5071071;28;20070;-58
2023/04/19 08:44:44;;;;;;;2.85;1.77;;;;;;;13.80;100.00;164173.22;5068199;28;20040;-59
2023/04/19 08:47:10;;;;;;;1.83;1.67;;;;;;;13.96;100.00;164215.13;5070576;28;20025;-58
2023/04/19 08:49:37;;;;;;;10.65;2.65;;;;;;;13.81;100.00;164175.94;5065490;28;20546;-58
2023/04/19 08:52:03;;;;;;;2.55;1.73;;;;;;;13.82;100.00;164177.25;5070639;28;20025;-58
2023/04/19 08:54:29;;;;;;;3.10;2.08;;;;;;;13.74;100.00;164156.94;5070104;28;20055;-59
2023/04/19 08:56:58;;;;;;;3.53;1.98;;;;;;;14.02;100.00;164230.03;5071275;28;20111;-58
2023/04/19 08:59:24;;;;;;;4.93;2.15;;;;;;;13.94;100.00;164211.09;5067064;28;20135;-59
2023/04/19 09:01:49;;;;;;;2.58;1.95;;;;;;;13.88;100.00;164194.84;5069800;28;20097;-58
2023/04/19 09:04:14;;;;;;;3.72;1.55;;;;;;;13.70;100.00;164146.16;5068953;28;20033;-58
2023/04/19 09:06:40;;;;;;;4.97;1.40;;;;;;;13.76;100.00;164162.38;5070790;28;20340;-59
2023/04/19 09:09:23;;;;;;;2.03;1.60;;;;;;;13.57;100.00;164113.72;5068484;28;20476;-58
2023/04/19 09:11:48;;;;;;;7.55;2.10;;;;;;;13.51;100.00;164096.13;5070810;28;20036;-58
2023/04/19 09:14:17;;;;;;;6.40;1.90;;;;;;;13.43;100.00;164075.84;5068521;28;20036;-58
2023/04/19 09:16:43;;;;;;;5.28;2.58;;;;;;;13.50;100.00;164094.78;5070355;28;20028;-59
2023/04/19 09:19:09;;;;;;;3.25;2.53;;;;;;;13.26;100.00;164032.53;5069197;28;20067;-58
2023/04/19 09:21:35;;;;;;;5.78;2.50;;;;;;;13.73;100.00;164154.28;5070315;28;20455;-58
2023/04/19 09:24:00;;;;;;;13.65;3.17;;;;;;;13.42;100.00;164073.13;5052489;28;20038;-59
2023/04/19 09:26:28;;;;;;;1.98;1.42;;;;;;;13.68;100.00;164140.72;5070597;28;20075;-59
2023/04/19 09:29:04;;;;;;;2.15;1.95;;;;;;;14.17;100.00;164270.59;5069185;28;20050;-58
2023/04/19 09:31:32;;;;;;;3.40;1.88;;;;;;;14.59;100.00;164381.53;5070737;28;20103;-58
2023/04/19 09:34:10;;;;;;;6.40;3.55;;;;;;;14.90;100.00;164462.78;5068732;28;20017;-58
2023/04/19 09:36:36;;;;;;;1.85;1.75;;;;;;;15.01;100.00;164489.81;5070319;28;20036;-58
2023/04/19 09:39:01;;;;;;;7.47;3.35;;;;;;;14.99;99.89;164484.44;5069089;28;20017;-58
2023/04/19 09:41:26;;;;;;;6.90;2.30;;;;;;;14.86;96.59;164451.91;5070102;28;20016;-58
2023/04/19 09:43:52;;;;;;;7.07;2.88;;;;;;;14.68;93.10;164404.56;5070142;28;20106;-59
2023/04/19 09:46:35;;;;;;;3.95;2.17;;;;;;;15.02;98.24;164492.53;5068922;28;20036;-58
2023/04/19 09:49:24;;;;;;;2.22;2.03;;;;;;;14.75;90.76;164422.16;5069065;28;20107;-58
2023/04/19 09:51:52;;;;;;;5.50;2.55;;;;;;;14.68;93.22;164404.56;5069820;28;20069;-58
2023/04/19 09:54:20;;;;;;;2.67;2.40;;;;;;;14.75;91.33;164422.16;5068956;28;20376;-58
2023/04/19 09:56:46;;;;;;;7.25;2.80;;;;;;;15.35;95.55;164580.50;5069689;28;20055;-58
2023/04/19 09:59:12;;;;;;;2.78;2.10;;;;;;;15.62;90.71;164649.53;5067430;28;20025;-59
2023/04/19 10:01:52;;;;;;;3.55;2.25;;;;;;;16.27;94.16;164820.25;5069920;28;20017;-58
2023/04/19 10:04:22;;;;;;;5.13;2.88;;;;;;;15.93;82.61;164730.84;5068774;28;20047;-58
2023/04/19 10:06:49;;;;;;;8.70;2.88;;;;;;;15.97;80.44;164741.72;5070362;28;20077;-58
2023/04/19 10:09:15;;;;;;;3.47;3.17;;;;;;;15.97;79.02;164743.03;5069007;28;20045;-59
2023/04/19 10:11:46;;;;;;;3.08;1.80;;;;;;;15.85;71.53;164710.56;5070137;28;20028;-59
2023/04/19 10:14:13;;;;;;;2.75;2.33;;;;;;;16.24;70.87;164812.09;5068590;28;20043;-58
2023/04/19 10:16:38;;;;;;;8.00;2.35;;;;;;;16.40;78.16;164854.06;5069869;28;20020;-58
2023/04/19 10:19:07;;;;;;;7.35;2.03;;;;;;;15.53;65.47;164626.56;5068559;28;20028;-59
2023/04/19 10:21:34;;;;;;;3.72;2.75;;;;;;;15.25;69.21;164553.47;5069508;28;20110;-58
2023/04/19 10:24:00;;;;;;;8.15;4.32;;;;;;;15.08;71.50;164508.75;5068802;28;20035;-58
2023/04/19 10:26:26;;;;;;;4.88;2.40;;;;;;;15.16;70.43;164529.09;5071544;28;20051;-58
2023/04/19 10:28:54;;;;;;;7.13;3.10;;;;;;;14.83;68.60;164442.44;5072440;28;20402;-59
2023/04/19 10:31:22;;;;;;;;;;;;;;;15.33;74.07;164573.75;5074467;28;20498;-58
2023/04/19 10:33:48;;;;;;;9.43;3.17;;;;;;;15.27;69.02;164558.84;5074125;28;19938;-59
2023/04/19 10:36:16;;;;;;;4.30;3.00;;;;;;;15.36;77.85;164583.22;5072217;28;20044;-58
2023/04/19 10:38:51;;;;;;;3.75;3.33;;;;;;;15.38;69.96;164587.25;5073720;28;20574;-58
2023/04/19 10:41:18;;;;;;;3.22;2.05;;;;;;;15.58;73.95;164640.06;5072163;28;20048;-58
2023/04/19 10:43:56;;;;;;;4.65;2.33;;;;;;;15.15;65.62;164527.72;5073358;28;20560;-58
2023/04/19 10:46:21;;;;;;;;;;;;;;;15.71;72.54;164673.94;5073009;28;20036;-58
2023/04/19 10:48:57;;;;;;;5.22;2.72;;;;;;;15.58;73.53;164638.75;5073888;28;20008;-57
2023/04/19 10:51:35;;;;;;;6.97;3.60;;;;;;;15.54;69.79;164629.25;5071677;28;20406;-58
2023/04/19 10:54:07;;;;;;;;;;;;;;;15.80;73.13;164696.94;5072804;28;20032;-58
2023/04/19 10:56:33;;;;;;;3.83;2.10;;;;;;;15.80;71.24;164696.94;5073653;28;20363;-58
2023/04/19 10:59:01;;;;;;;6.50;3.13;;;;;;;15.77;71.66;164690.16;5070612;28;20111;-59
2023/04/19 11:01:41;;;;;;;8.48;2.45;;;;;;;15.84;69.52;164709.19;5073127;28;20095;-58
2023/04/19 11:04:19;;;;;;;4.15;1.70;;;;;;;15.91;68.76;164725.41;5070058;28;20074;-58
2023/04/19 11:06:54;;;;;;;4.63;2.50;;;;;;;16.08;69.90;164771.47;5072590;28;20063;-58
2023/04/19 11:09:25;;;;;;;2.88;1.92;;;;;;;16.04;72.19;164760.66;5069167;28;20110;-58
2023/04/19 11:12:11;;;;;;;5.38;2.30;;;;;;;16.42;73.06;164860.84;5073218;28;20028;-58
2023/04/19 11:14:44;;;;;;;5.65;3.63;;;;;;;16.31;72.43;164831.06;5063914;28;20428;-58
2023/04/19 11:17:30;;;;;;;3.00;2.58;;;;;;;16.34;72.78;164839.22;5072881;28;20052;-58
2023/04/19 11:20:00;;;;;;;2.25;2.05;;;;;;;16.13;70.95;164785.00;5071339;28;20185;-58